AS2275 / N442QX 7700 Squawk Report (18th of May, 2022)

Time Lat Lon Altitude Heading Speed Vertical Rate
2022-05-18 22:39:21 GMT 47.632233 -117.516769 2,450 225 115 -512
2022-05-18 22:39:13 GMT 47.635509 -117.511810 2,525 227 118 -576
2022-05-18 22:39:01 GMT 47.639282 -117.506058 2,650 225 114 -704
2022-05-18 22:38:52 GMT 47.643234 -117.500191 2,750 226 113 -768
2022-05-18 22:38:41 GMT 47.651241 -117.487793 3,000 226 106 0
2022-05-18 22:38:30 GMT 47.651241 -117.487793 3,000 226 106 0
2022-05-18 22:38:18 GMT 47.655293 -117.481804 3,075 227 105 64
2022-05-18 22:38:08 GMT 47.659248 -117.475891 3,150 225 113 -1536
2022-05-18 22:37:59 GMT 47.662277 -117.471313 3,375 226 106 256
2022-05-18 22:37:48 GMT 47.666428 -117.464928 3,375 225 112 -704
2022-05-18 22:37:37 GMT 47.669998 -117.459846 3,475 225 113 -640
2022-05-18 22:37:28 GMT 47.673752 -117.454147 3,575 228 118 -576
2022-05-18 22:37:23 GMT 47.675491 -117.451332 3,600 228 125 -768
2022-05-18 22:37:18 GMT 47.678013 -117.447296 3,700 226 135 -448
2022-05-18 22:37:15 GMT 47.679108 -117.445633 3,700 224 140 -640
2022-05-18 22:37:07 GMT 47.683086 -117.440254 3,825 222 150 -320
2022-05-18 22:37:04 GMT 47.684143 -117.438835 3,825 222 152 -640
2022-05-18 22:36:55 GMT 47.688530 -117.432442 3,975 228 162 -1280
2022-05-18 22:36:52 GMT 47.690643 -117.428947 4,025 229 169 -448
2022-05-18 22:36:46 GMT 47.693893 -117.423454 4,050 230 179 384
2022-05-18 22:36:42 GMT 47.696274 -117.419266 4,050 230 178 192
2022-05-18 22:36:36 GMT 47.699238 -117.414200 4,075 228 177 0
2022-05-18 22:36:33 GMT 47.700897 -117.411438 4,050 226 176 -320
2022-05-18 22:36:25 GMT 47.705616 -117.404617 4,075 222 175 -320
2022-05-18 22:36:21 GMT 47.707123 -117.402718 4,075 221 174 -64
2022-05-18 22:36:15 GMT 47.711716 -117.397018 4,075 220 174 -256
2022-05-18 22:36:12 GMT 47.713577 -117.394684 4,100 220 173 -64
2022-05-18 22:36:09 GMT 47.714928 -117.393074 4,075 220 174 -64
2022-05-18 22:36:04 GMT 47.718697 -117.388565 4,075 220 177 -128
2022-05-18 22:36:00 GMT 47.720654 -117.386238 4,100 233 180 256
2022-05-18 22:35:51 GMT 47.726166 -117.377586 4,075 243 182 -384
2022-05-18 22:35:43 GMT 47.728615 -117.367722 4,125 257 186 -448
2022-05-18 22:35:40 GMT 47.728958 -117.365433 4,125 257 187 -832
2022-05-18 22:35:32 GMT 47.730476 -117.355957 4,250 257 188 -640
2022-05-18 22:35:29 GMT 47.731312 -117.350883 4,275 257 188 -704
2022-05-18 22:35:22 GMT 47.732712 -117.341881 4,350 258 190 -640
2022-05-18 22:35:17 GMT 47.733456 -117.336945 4,375 258 191 -896
2022-05-18 22:35:11 GMT 47.734802 -117.328423 4,500 256 195 -576
2022-05-18 22:35:08 GMT 47.735783 -117.322998 4,550 252 194 -320
2022-05-18 22:35:02 GMT 47.737553 -117.316025 4,600 240 193 -448
2022-05-18 22:34:58 GMT 47.738892 -117.312492 4,675 227 193 -896
2022-05-18 22:34:54 GMT 47.740860 -117.308784 4,675 227 193 -896
2022-05-18 22:34:48 GMT 47.748642 -117.301163 4,800 203 195 -640
2022-05-18 22:34:40 GMT 47.752869 -117.299690 4,850 188 199 -640
2022-05-18 22:34:35 GMT 47.756496 -117.299477 4,900 176 202 -640
2022-05-18 22:34:30 GMT 47.761688 -117.300682 4,975 160 208 -448
2022-05-18 22:34:27 GMT 47.764664 -117.302261 4,975 156 210 -640
2022-05-18 22:34:24 GMT 47.766541 -117.303566 5,000 151 212 -768
2022-05-18 22:34:19 GMT 47.771580 -117.308487 5,100 140 220 -128
2022-05-18 22:34:15 GMT 47.774551 -117.312561 5,100 132 225 -128
2022-05-18 22:34:08 GMT 47.778900 -117.320183 5,075 127 233 -768
2022-05-18 22:34:04 GMT 47.781693 -117.325607 5,125 126 237 -1792
2022-05-18 22:33:58 GMT 47.786011 -117.334198 5,275 126 240 -1152
2022-05-18 22:33:53 GMT 47.789318 -117.340889 5,375 125 242 -1024
2022-05-18 22:33:47 GMT 47.792713 -117.347931 5,450 124 244 -704
2022-05-18 22:33:43 GMT 47.795425 -117.353760 5,525 123 243 -1472
2022-05-18 22:33:37 GMT 47.799232 -117.363350 5,650 115 244 -768
2022-05-18 22:33:33 GMT 47.800861 -117.369476 5,700 107 244 -1152
2022-05-18 22:33:26 GMT 47.802399 -117.379761 5,800 94 242 -1024
2022-05-18 22:33:21 GMT 47.802540 -117.386871 5,900 86 242 -896
2022-05-18 22:33:16 GMT 47.801514 -117.397156 5,975 72 241 -384
2022-05-18 22:33:12 GMT 47.800003 -117.403748 6,025 66 242 128
2022-05-18 22:33:07 GMT 47.797485 -117.411369 6,025 59 243 0
2022-05-18 22:33:04 GMT 47.796616 -117.413498 6,000 57 242 -128
2022-05-18 22:33:01 GMT 47.794113 -117.418991 6,025 55 243 0
2022-05-18 22:32:53 GMT 47.788742 -117.430321 6,025 54 245 192
2022-05-18 22:32:50 GMT 47.786987 -117.433922 6,025 54 245 -192
2022-05-18 22:32:46 GMT 47.783871 -117.440399 6,025 53 246 -64
2022-05-18 22:32:40 GMT 47.779961 -117.448212 6,025 53 246 -128
2022-05-18 22:32:35 GMT 47.776749 -117.454620 6,025 53 246 128
2022-05-18 22:32:32 GMT 47.774654 -117.458847 6,025 54 245 -64
2022-05-18 22:32:28 GMT 47.772675 -117.462868 6,025 54 245 128
2022-05-18 22:32:25 GMT 47.770092 -117.468285 6,025 54 245 -320
2022-05-18 22:32:19 GMT 47.765762 -117.476944 6,050 53 245 -128
2022-05-18 22:32:14 GMT 47.762970 -117.482574 6,075 53 243 0
2022-05-18 22:32:11 GMT 47.760544 -117.487381 6,050 53 244 -320
2022-05-18 22:32:08 GMT 47.758896 -117.490746 6,075 54 242 -192
2022-05-18 22:32:04 GMT 47.756012 -117.496719 6,100 54 245 -448
2022-05-18 22:31:58 GMT 47.751709 -117.505783 6,125 54 252 -1408
2022-05-18 22:31:53 GMT 47.748863 -117.511810 6,225 55 256 -1152
2022-05-18 22:31:50 GMT 47.746490 -117.516838 6,275 54 259 -1344
2022-05-18 22:31:46 GMT 47.744431 -117.521164 6,350 54 262 -1216
2022-05-18 22:31:41 GMT 47.740494 -117.529266 6,450 54 266 -1088
2022-05-18 22:31:37 GMT 47.736900 -117.536667 6,525 54 269 -1088
2022-05-18 22:31:32 GMT 47.734058 -117.542511 6,600 54 270 -768
2022-05-18 22:31:28 GMT 47.731018 -117.548698 6,650 54 270 -1152
2022-05-18 22:31:20 GMT 47.725479 -117.560371 6,775 55 268 -960
2022-05-18 22:31:16 GMT 47.722095 -117.567726 6,850 55 265 -1280
2022-05-18 22:31:12 GMT 47.719345 -117.573624 6,950 55 262 -384
2022-05-18 22:31:07 GMT 47.716461 -117.579910 6,975 56 259 -448
2022-05-18 22:31:04 GMT 47.714600 -117.584061 7,025 55 257 -192
2022-05-18 22:31:01 GMT 47.712296 -117.589073 7,025 55 256 0
2022-05-18 22:30:58 GMT 47.710602 -117.592712 7,025 55 256 192
2022-05-18 22:30:55 GMT 47.707535 -117.599373 7,025 55 257 128
2022-05-18 22:30:51 GMT 47.705109 -117.604797 7,025 55 257 64
2022-05-18 22:30:48 GMT 47.704079 -117.606880 7,025 54 257 256
2022-05-18 22:30:44 GMT 47.700623 -117.614136 7,025 54 258 -128
2022-05-18 22:30:39 GMT 47.697655 -117.620262 7,025 54 256 192
2022-05-18 22:30:36 GMT 47.695084 -117.625603 7,025 54 256 -192
2022-05-18 22:30:33 GMT 47.693253 -117.629311 7,025 54 256 0
2022-05-18 22:30:30 GMT 47.690487 -117.635124 7,025 54 255 256
2022-05-18 22:30:25 GMT 47.687881 -117.640549 7,000 54 256 -256
2022-05-18 22:30:22 GMT 47.686066 -117.644279 7,025 54 256 -64
2022-05-18 22:30:17 GMT 47.682129 -117.652451 7,025 54 256 -64
2022-05-18 22:30:12 GMT 47.678894 -117.659134 7,025 54 256 384
2022-05-18 22:30:09 GMT 47.676544 -117.664124 7,000 54 258 -448
2022-05-18 22:30:06 GMT 47.675125 -117.667023 7,000 55 258 -192
2022-05-18 22:30:02 GMT 47.672012 -117.673668 7,025 55 258 320
2022-05-18 22:29:57 GMT 47.667709 -117.682732 7,025 54 256 -64
2022-05-18 22:29:52 GMT 47.664276 -117.689774 7,000 54 255 64
2022-05-18 22:29:48 GMT 47.662045 -117.694351 7,000 53 255 0
2022-05-18 22:29:45 GMT 47.660614 -117.697220 7,000 53 256 -512
2022-05-18 22:29:40 GMT 47.657108 -117.704353 7,025 53 255 -256
2022-05-18 22:29:36 GMT 47.653198 -117.712120 7,025 53 252 320
2022-05-18 22:29:30 GMT 47.649380 -117.719917 7,000 54 251 -384
2022-05-18 22:29:25 GMT 47.646214 -117.726463 7,025 54 253 -192
2022-05-18 22:29:20 GMT 47.642990 -117.733131 7,025 54 252 256
2022-05-18 22:29:15 GMT 47.639233 -117.740974 7,025 54 253 192
2022-05-18 22:29:09 GMT 47.636066 -117.747665 7,025 54 254 -64
2022-05-18 22:29:04 GMT 47.632156 -117.755974 7,025 55 256 -192
2022-05-18 22:28:59 GMT 47.628944 -117.762733 7,025 54 258 0
2022-05-18 22:28:54 GMT 47.624908 -117.771240 7,025 54 260 64
2022-05-18 22:28:48 GMT 47.621338 -117.778656 7,025 55 262 256
2022-05-18 22:28:45 GMT 47.619003 -117.783669 7,050 55 263 320
2022-05-18 22:28:42 GMT 47.617027 -117.787949 7,000 55 264 -64
2022-05-18 22:28:33 GMT 47.610184 -117.802315 7,000 55 270 -64
2022-05-18 22:28:25 GMT 47.604832 -117.813507 7,025 54 272 -192
2022-05-18 22:28:21 GMT 47.602295 -117.818756 7,000 54 274 -384
2022-05-18 22:28:16 GMT 47.597855 -117.827751 7,000 54 275 64
2022-05-18 22:28:12 GMT 47.594513 -117.834618 7,025 54 274 -128
2022-05-18 22:28:01 GMT 47.586815 -117.850128 7,025 53 268 -64
2022-05-18 22:27:51 GMT 47.578995 -117.865791 7,075 54 264 0
2022-05-18 22:27:39 GMT 47.571686 -117.880974 7,075 55 257 -256
2022-05-18 22:27:30 GMT 47.564850 -117.895523 7,225 54 252 -1152
2022-05-18 22:27:22 GMT 47.559162 -117.907455 7,350 55 246 -1344
2022-05-18 22:27:19 GMT 47.557907 -117.910065 7,425 55 246 -1344
2022-05-18 22:27:09 GMT 47.551666 -117.925201 7,525 64 242 -704
2022-05-18 22:26:58 GMT 47.547806 -117.941681 7,750 82 253 -1600
2022-05-18 22:26:48 GMT 47.546638 -117.960770 7,975 86 260 -1344
2022-05-18 22:26:37 GMT 47.545898 -117.978882 8,175 86 267 -960
2022-05-18 22:26:27 GMT 47.545197 -117.998726 8,400 87 275 -1024
2022-05-18 22:26:17 GMT 47.544525 -118.017952 8,575 87 285 -1152
2022-05-18 22:26:13 GMT 47.544357 -118.022881 8,600 87 287 -768
2022-05-18 22:26:07 GMT 47.544022 -118.035393 8,700 87 289 -1408
2022-05-18 22:26:03 GMT 47.543747 -118.044250 8,800 87 290 -1152
2022-05-18 22:25:54 GMT 47.543011 -118.061195 9,000 85 294 -256
2022-05-18 22:25:45 GMT 47.541824 -118.081398 9,025 84 300 192
2022-05-18 22:25:34 GMT 47.540543 -118.102608 8,950 85 301 -192
2022-05-18 22:25:24 GMT 47.539562 -118.123802 9,025 86 302 -64
2022-05-18 22:25:13 GMT 47.538631 -118.145920 9,000 86 302 -64
2022-05-18 22:25:05 GMT 47.537796 -118.164139 9,000 85 302 192
2022-05-18 22:25:02 GMT 47.537655 -118.167328 9,000 85 302 192
2022-05-18 22:24:51 GMT 47.536350 -118.189438 9,000 84 302 0
2022-05-18 22:24:42 GMT 47.535187 -118.210144 8,975 85 302 -128
2022-05-18 22:24:31 GMT 47.533978 -118.232536 9,000 85 301 -320
2022-05-18 22:24:21 GMT 47.532669 -118.254433 9,025 84 298 -64
2022-05-18 22:24:10 GMT 47.531322 -118.275360 9,025 85 295 448
2022-05-18 22:23:58 GMT 47.530151 -118.297691 9,025 85 296 0
2022-05-18 22:23:49 GMT 47.529228 -118.318741 9,000 86 296 192
2022-05-18 22:23:38 GMT 47.528252 -118.340012 9,025 85 296 768
2022-05-18 22:23:27 GMT 47.527130 -118.362785 9,000 85 297 -256
2022-05-18 22:23:16 GMT 47.525894 -118.383934 9,000 84 296 -128
2022-05-18 22:23:08 GMT 47.524750 -118.401855 9,000 84 296 -192
2022-05-18 22:23:05 GMT 47.524529 -118.404938 9,000 84 296 -320
2022-05-18 22:22:54 GMT 47.523193 -118.427055 9,000 85 296 128
2022-05-18 22:22:45 GMT 47.522060 -118.447830 9,025 84 298 256
2022-05-18 22:22:34 GMT 47.520813 -118.469147 8,975 85 299 -64
2022-05-18 22:22:24 GMT 47.519592 -118.490509 9,000 84 300 -64
2022-05-18 22:22:13 GMT 47.518337 -118.512268 9,025 85 297 0
2022-05-18 22:22:03 GMT 47.517197 -118.533211 9,000 85 297 -64
2022-05-18 22:22:00 GMT 47.516785 -118.540695 9,000 85 297 -128
2022-05-18 22:21:52 GMT 47.515961 -118.554382 9,000 84 297 512
2022-05-18 22:21:42 GMT 47.514660 -118.576851 9,000 84 297 256
2022-05-18 22:21:31 GMT 47.513355 -118.596992 8,975 84 296 -192
2022-05-18 22:21:21 GMT 47.511887 -118.617805 9,025 83 295 192
2022-05-18 22:21:10 GMT 47.510563 -118.639175 9,000 85 294 192
2022-05-18 22:21:07 GMT 47.510147 -118.647125 9,000 86 300 -448
2022-05-18 22:21:00 GMT 47.509552 -118.660378 9,000 86 295 128
2022-05-18 22:20:49 GMT 47.508728 -118.681595 9,000 86 299 0
2022-05-18 22:20:42 GMT 47.508133 -118.695946 9,000 86 301 -192
2022-05-18 22:20:39 GMT 47.507812 -118.703705 9,000 86 301 -64
2022-05-18 22:20:30 GMT 47.507023 -118.720657 9,025 85 300 128
2022-05-18 22:20:27 GMT 47.506790 -118.725021 9,025 85 300 0
2022-05-18 22:20:22 GMT 47.506046 -118.739105 9,025 85 300 -64
2022-05-18 22:20:18 GMT 47.505615 -118.746071 9,025 84 298 0
2022-05-18 22:20:12 GMT 47.504974 -118.755615 9,025 84 297 -128
2022-05-18 22:20:07 GMT 47.504242 -118.767082 9,025 84 294 -128
2022-05-18 22:19:57 GMT 47.502594 -118.788300 9,025 82 290 64
2022-05-18 22:19:50 GMT 47.501541 -118.799904 9,000 81 288 -384
2022-05-18 22:19:46 GMT 47.500626 -118.808830 9,025 81 287 64
2022-05-18 22:19:36 GMT 47.498520 -118.829292 9,050 82 284 -256
2022-05-18 22:19:27 GMT 47.497192 -118.846733 9,050 86 306 -1280
2022-05-18 22:19:24 GMT 47.496964 -118.850853 9,025 85 291 64
2022-05-18 22:19:15 GMT 47.496037 -118.871223 9,125 85 308 -1472
2022-05-18 22:19:06 GMT 47.495132 -118.889236 9,425 85 312 -2112
2022-05-18 22:19:03 GMT 47.494781 -118.894890 9,550 84 313 -1856
2022-05-18 22:18:57 GMT 47.493992 -118.908623 9,700 84 320 -1024
2022-05-18 22:18:54 GMT 47.493477 -118.916512 9,750 84 324 -1600
2022-05-18 22:18:45 GMT 47.492409 -118.934326 9,975 85 331 -1152
2022-05-18 22:18:42 GMT 47.492111 -118.939362 10,025 85 333 -832
2022-05-18 22:18:38 GMT 47.491333 -118.953575 10,075 85 341 -640
2022-05-18 22:18:35 GMT 47.491058 -118.958450 10,100 85 345 -640
2022-05-18 22:18:31 GMT 47.490730 -118.964470 10,125 85 348 0
2022-05-18 22:18:24 GMT 47.489521 -118.984962 10,275 84 361 -1984
2022-05-18 22:18:21 GMT 47.489227 -118.989761 10,325 84 361 -2688
2022-05-18 22:18:16 GMT 47.488174 -119.005005 10,625 83 364 -3584
2022-05-18 22:18:11 GMT 47.487286 -119.016792 10,900 83 365 -3200
2022-05-18 22:18:03 GMT 47.485748 -119.037964 11,425 83 366 -3584
2022-05-18 22:18:00 GMT 47.485382 -119.042702 11,575 83 367 -3008
2022-05-18 22:17:55 GMT 47.484261 -119.058556 11,875 83 368 -2944
2022-05-18 22:17:50 GMT 47.483467 -119.069054 12,100 83 372 -3072
2022-05-18 22:17:42 GMT 47.481995 -119.088913 12,475 83 375 -2688
2022-05-18 22:17:39 GMT 47.481514 -119.095459 12,600 84 377 -2752
2022-05-18 22:17:32 GMT 47.480392 -119.111710 12,875 84 379 -3328
2022-05-18 22:17:29 GMT 47.479607 -119.123138 13,150 84 377 -4544
2022-05-18 22:17:21 GMT 47.478241 -119.143295 13,725 84 369 -3072
2022-05-18 22:17:18 GMT 47.477829 -119.149612 13,875 85 369 -2752
2022-05-18 22:17:12 GMT 47.476959 -119.166161 14,200 86 366 -3776
2022-05-18 22:17:08 GMT 47.476627 -119.175957 14,450 87 365 -3392
2022-05-18 22:17:00 GMT 47.476364 -119.195686 14,875 90 364 -2048
2022-05-18 22:16:56 GMT 47.476410 -119.202209 14,950 90 366 -1280
2022-05-18 22:16:50 GMT 47.476776 -119.218758 15,075 93 375 -192
2022-05-18 22:16:47 GMT 47.477188 -119.229057 15,100 94 378 -192
2022-05-18 22:16:39 GMT 47.478241 -119.248970 15,125 94 394 -1024
2022-05-18 22:16:35 GMT 47.478676 -119.256592 15,150 94 397 -1216
2022-05-18 22:16:26 GMT 47.480301 -119.285500 15,425 94 408 -2368
2022-05-18 22:16:18 GMT 47.481514 -119.306877 15,775 94 412 -3328
2022-05-18 22:16:14 GMT 47.481949 -119.315094 15,925 94 413 -3136
2022-05-18 22:16:08 GMT 47.483002 -119.335419 16,325 94 417 -2816
2022-05-18 22:16:04 GMT 47.483517 -119.344696 16,425 94 420 -2688
2022-05-18 22:15:57 GMT 47.484634 -119.366455 16,775 94 425 -2752
2022-05-18 22:15:53 GMT 47.485107 -119.375038 16,900 94 426 -3200
2022-05-18 22:15:46 GMT 47.486252 -119.396187 17,375 94 428 -2880
2022-05-18 22:15:43 GMT 47.486774 -119.405121 17,450 94 428 -2944
2022-05-18 22:15:36 GMT 47.488029 -119.428078 17,875 94 427 -3712
2022-05-18 22:15:33 GMT 47.488449 -119.435738 18,025 94 426 -4032
2022-05-18 22:15:25 GMT 47.489731 -119.459702 18,575 94 422 -2688
2022-05-18 22:15:21 GMT 47.490097 -119.466843 18,700 94 422 -1984
2022-05-18 22:15:12 GMT 47.491562 -119.496849 19,000 94 427 -2304
2022-05-18 22:15:04 GMT 47.492687 -119.520615 19,325 94 430 -2496
2022-05-18 22:15:01 GMT 47.493057 -119.527939 19,450 94 431 -2688
2022-05-18 22:14:51 GMT 47.494537 -119.558372 19,925 94 434 -3072
2022-05-18 22:14:39 GMT 47.496094 -119.589752 20,550 94 435 -4928
2022-05-18 22:14:30 GMT 47.497665 -119.620689 21,450 94 426 -4736
2022-05-18 22:14:21 GMT 47.499111 -119.646606 22,125 95 418 -4288
2022-05-18 22:14:16 GMT 47.499847 -119.658073 22,425 95 409 -4928
2022-05-18 22:14:11 GMT 47.500740 -119.672737 22,825 95 406 -4800
2022-05-18 22:14:07 GMT 47.501450 -119.683273 23,150 95 401 -4352
2022-05-18 22:14:00 GMT 47.502823 -119.703804 23,650 95 396 -2048
2022-05-18 22:13:57 GMT 47.503281 -119.710258 23,700 96 396 -1728
2022-05-18 22:13:50 GMT 47.504791 -119.730721 23,925 96 397 -2432
2022-05-18 22:13:47 GMT 47.505524 -119.739853 24,050 96 397 -3328
2022-05-18 22:13:39 GMT 47.507126 -119.760796 24,575 96 393 -3136
2022-05-18 22:13:36 GMT 47.507629 -119.767319 24,725 95 393 -1984
2022-05-18 22:13:29 GMT 47.508865 -119.785652 24,875 94 402 384
2022-05-18 22:13:26 GMT 47.509415 -119.795746 24,850 94 404 448
2022-05-18 22:13:20 GMT 47.510330 -119.812950 24,825 94 403 448
2022-05-18 22:13:15 GMT 47.510887 -119.824219 24,800 94 403 512
2022-05-18 22:13:09 GMT 47.511726 -119.840347 24,750 94 403 512
2022-05-18 22:13:05 GMT 47.512390 -119.853081 24,700 94 403 640
2022-05-18 22:12:59 GMT 47.513264 -119.870773 24,625 94 402 768
2022-05-18 22:12:56 GMT 47.513718 -119.879173 24,600 94 402 768
2022-05-18 22:12:53 GMT 47.513866 -119.882812 24,575 94 402 768
2022-05-18 22:12:48 GMT 47.514610 -119.897881 24,500 94 402 832
2022-05-18 22:12:44 GMT 47.515320 -119.911446 24,425 94 402 896
2022-05-18 22:12:36 GMT 47.516289 -119.932037 24,300 94 402 1024
2022-05-18 22:12:33 GMT 47.516663 -119.939156 24,275 94 400 1024
2022-05-18 22:12:27 GMT 47.517380 -119.954567 24,150 94 400 1088
2022-05-18 22:12:23 GMT 47.518059 -119.968376 24,075 94 400 1088
2022-05-18 22:12:18 GMT 47.518616 -119.981071 23,975 94 400 1088
2022-05-18 22:12:12 GMT 47.519348 -119.996658 23,875 94 400 1024
2022-05-18 22:12:05 GMT 47.520218 -120.014992 23,725 93 401 1088
2022-05-18 22:12:02 GMT 47.520721 -120.025909 23,675 93 401 1024
2022-05-18 22:11:56 GMT 47.521271 -120.037819 23,525 93 401 832
2022-05-18 22:11:53 GMT 47.521687 -120.046555 23,525 93 401 832
2022-05-18 22:11:50 GMT 47.522049 -120.054955 23,500 93 402 832
2022-05-18 22:11:44 GMT 47.522945 -120.074791 23,400 93 402 704
2022-05-18 22:11:41 GMT 47.523331 -120.083450 23,375 93 402 704
2022-05-18 22:11:30 GMT 47.524620 -120.111626 23,250 93 403 704
2022-05-18 22:11:26 GMT 47.525181 -120.124229 23,200 93 404 576
2022-05-18 22:11:23 GMT 47.525528 -120.132683 23,175 93 404 512
2022-05-18 22:11:20 GMT 47.525925 -120.141624 23,150 93 405 512
2022-05-18 22:11:15 GMT 47.526443 -120.153076 23,025 93 405 640
2022-05-18 22:11:09 GMT 47.527222 -120.170448 23,050 94 406 640
2022-05-18 22:11:05 GMT 47.527740 -120.181412 23,000 94 406 768
2022-05-18 22:11:02 GMT 47.528252 -120.190781 22,950 94 406 832
2022-05-18 22:10:58 GMT 47.528687 -120.199493 22,900 94 406 960
2022-05-18 22:10:52 GMT 47.529648 -120.218742 22,775 94 407 1216
2022-05-18 22:10:48 GMT 47.530243 -120.229912 22,725 94 407 1280
2022-05-18 22:10:41 GMT 47.531231 -120.248886 22,550 94 407 1408
2022-05-18 22:10:36 GMT 47.531708 -120.258476 22,475 94 408 1472
2022-05-18 22:10:30 GMT 47.532722 -120.277267 22,325 94 409 1408
2022-05-18 22:10:25 GMT 47.533375 -120.290009 22,225 94 409 1280
2022-05-18 22:10:20 GMT 47.534271 -120.306610 22,100 94 410 1088
2022-05-18 22:10:16 GMT 47.534821 -120.318077 22,025 94 411 1024
2022-05-18 22:10:09 GMT 47.535748 -120.335297 21,925 94 412 896
2022-05-18 22:10:06 GMT 47.536240 -120.345749 21,850 94 412 832
2022-05-18 22:10:02 GMT 47.536770 -120.355789 21,750 94 413 704
2022-05-18 22:09:58 GMT 47.537285 -120.367264 21,750 93 413 640
2022-05-18 22:09:55 GMT 47.537750 -120.377411 21,725 93 413 512
2022-05-18 22:09:52 GMT 47.538116 -120.385437 21,700 93 414 384
2022-05-18 22:09:48 GMT 47.538399 -120.393822 21,675 93 415 256
2022-05-18 22:09:44 GMT 47.538895 -120.408646 21,650 92 416 192
2022-05-18 22:09:38 GMT 47.539398 -120.426292 21,625 92 416 128
2022-05-18 22:09:33 GMT 47.539719 -120.438240 21,625 92 417 128
2022-05-18 22:09:30 GMT 47.539845 -120.443748 21,600 92 416 640
2022-05-18 22:09:27 GMT 47.540123 -120.454597 21,600 92 417 448
2022-05-18 22:09:23 GMT 47.540447 -120.468536 21,575 92 416 640
2022-05-18 22:09:19 GMT 47.540730 -120.478470 21,525 92 416 832
2022-05-18 22:09:16 GMT 47.540867 -120.484383 21,375 92 416 960
2022-05-18 22:09:12 GMT 47.541241 -120.499458 21,425 91 416 1280
2022-05-18 22:09:09 GMT 47.541321 -120.504158 21,375 91 415 1408
2022-05-18 22:09:06 GMT 47.541519 -120.512764 21,300 91 415 1600
2022-05-18 22:09:03 GMT 47.541798 -120.524666 21,200 91 415 1792
2022-05-18 22:09:00 GMT 47.541985 -120.533470 21,100 91 415 1984
2022-05-18 22:08:55 GMT 47.542191 -120.544601 20,975 91 414 2048
2022-05-18 22:08:51 GMT 47.542419 -120.559021 20,800 91 414 2048
2022-05-18 22:08:46 GMT 47.542683 -120.572769 20,650 91 414 1984
2022-05-18 22:08:42 GMT 47.542915 -120.584320 20,500 91 414 1984
2022-05-18 22:08:39 GMT 47.543056 -120.591431 20,425 91 414 1920
2022-05-18 22:08:34 GMT 47.543289 -120.602829 20,300 91 414 1856
2022-05-18 22:08:28 GMT 47.543655 -120.621780 19,700 91 417 832
2022-05-18 22:08:25 GMT 47.543839 -120.632217 20,000 91 415 1536
2022-05-18 22:08:18 GMT 47.544250 -120.651512 19,825 91 416 1216
2022-05-18 22:08:13 GMT 47.544453 -120.662491 19,750 91 417 960
2022-05-18 22:08:10 GMT 47.544662 -120.673965 19,675 91 417 768
2022-05-18 22:08:07 GMT 47.544777 -120.681221 19,650 91 418 704
2022-05-18 22:08:03 GMT 47.545029 -120.693672 19,600 91 418 640
2022-05-18 22:07:58 GMT 47.545242 -120.705238 19,550 91 419 576
2022-05-18 22:07:55 GMT 47.545578 -120.722511 19,500 91 420 576
2022-05-18 22:07:52 GMT 47.545578 -120.722511 19,500 91 420 576
2022-05-18 22:07:49 GMT 47.545807 -120.734253 19,350 91 420 512
2022-05-18 22:07:46 GMT 47.545990 -120.743179 19,425 91 420 512
2022-05-18 22:07:42 GMT 47.546173 -120.754181 19,375 91 420 576
2022-05-18 22:07:36 GMT 47.546494 -120.771881 19,325 91 420 448
2022-05-18 22:07:31 GMT 47.546677 -120.782730 19,300 91 420 448
2022-05-18 22:07:28 GMT 47.546906 -120.795364 19,275 91 420 384
2022-05-18 22:07:25 GMT 47.547012 -120.803268 19,200 91 420 256
2022-05-18 22:07:22 GMT 47.547153 -120.811577 19,250 91 420 256
2022-05-18 22:07:17 GMT 47.547363 -120.825165 19,225 91 419 320
2022-05-18 22:07:13 GMT 47.547501 -120.833748 19,200 91 418 384
2022-05-18 22:07:10 GMT 47.547638 -120.842331 19,200 91 418 448
2022-05-18 22:07:04 GMT 47.548004 -120.864853 19,125 91 417 576
2022-05-18 22:07:00 GMT 47.548130 -120.872360 19,100 91 417 576
2022-05-18 22:06:53 GMT 47.548553 -120.894997 19,025 91 416 512
2022-05-18 22:06:49 GMT 47.548782 -120.907356 18,975 91 404 704
2022-05-18 22:06:44 GMT 47.548965 -120.918549 18,975 91 414 512
2022-05-18 22:06:40 GMT 47.549240 -120.930084 18,925 91 413 576
2022-05-18 22:06:37 GMT 47.549377 -120.938255 18,900 91 412 512
2022-05-18 22:06:34 GMT 47.549622 -120.948204 18,875 91 411 448
2022-05-18 22:06:30 GMT 47.549881 -120.959610 18,825 91 410 448
2022-05-18 22:06:22 GMT 47.550339 -120.980278 18,775 91 407 512
2022-05-18 22:06:19 GMT 47.550552 -120.988487 18,750 91 406 576
2022-05-18 22:06:16 GMT 47.550735 -120.997078 18,725 91 406 640
2022-05-18 22:06:13 GMT 47.550980 -121.007401 18,675 91 403 768
2022-05-18 22:06:10 GMT 47.551109 -121.013351 18,650 91 403 768
2022-05-18 22:06:07 GMT 47.551388 -121.023560 18,625 91 402 768
2022-05-18 22:06:03 GMT 47.551666 -121.036308 18,575 91 401 896
2022-05-18 22:06:00 GMT 47.551853 -121.042999 18,525 91 398 1024
2022-05-18 22:05:55 GMT 47.552078 -121.053818 18,450 91 399 960
2022-05-18 22:05:51 GMT 47.552319 -121.064262 18,400 91 398 1024
2022-05-18 22:05:47 GMT 47.552582 -121.076889 18,325 91 397 960
2022-05-18 22:05:41 GMT 47.552925 -121.092155 18,200 91 394 704
2022-05-18 22:05:37 GMT 47.553158 -121.103210 18,200 91 393 640
2022-05-18 22:05:33 GMT 47.553360 -121.115959 18,150 91 390 576
2022-05-18 22:05:30 GMT 47.553436 -121.120041 18,125 91 390 576
2022-05-18 22:05:27 GMT 47.553635 -121.131409 18,075 91 389 576
2022-05-18 22:05:21 GMT 47.553909 -121.147820 18,025 91 386 768
2022-05-18 22:05:16 GMT 47.554092 -121.158875 17,975 91 385 832
2022-05-18 22:05:12 GMT 47.554321 -121.172539 17,900 91 384 832
2022-05-18 22:05:09 GMT 47.554367 -121.176384 17,725 91 381 704
2022-05-18 22:05:06 GMT 47.554508 -121.186874 17,825 91 382 768
2022-05-18 22:05:03 GMT 47.554596 -121.191902 17,800 91 382 704
2022-05-18 22:05:00 GMT 47.554779 -121.202888 17,750 91 381 704
2022-05-18 22:04:57 GMT 47.554871 -121.208313 17,725 91 374 832
2022-05-18 22:04:54 GMT 47.555054 -121.219437 17,675 91 378 960
2022-05-18 22:04:51 GMT 47.555115 -121.224762 17,650 91 377 1216
2022-05-18 22:04:48 GMT 47.555237 -121.232620 17,575 91 377 1280
2022-05-18 22:04:45 GMT 47.555393 -121.240959 17,525 91 377 1280
2022-05-18 22:04:42 GMT 47.555511 -121.247520 17,475 91 377 1216
2022-05-18 22:04:38 GMT 47.555717 -121.261314 17,375 91 376 1024
2022-05-18 22:04:33 GMT 47.555859 -121.271805 17,300 91 376 832
2022-05-18 22:04:28 GMT 47.556015 -121.283226 17,225 91 375 832
2022-05-18 22:04:25 GMT 47.556091 -121.289764 17,200 91 374 832
2022-05-18 22:04:22 GMT 47.556183 -121.298714 17,150 91 373 960
2022-05-18 22:04:19 GMT 47.556335 -121.308975 17,075 91 372 1152
2022-05-18 22:04:16 GMT 47.556370 -121.314980 17,025 90 371 1280
2022-05-18 22:04:12 GMT 47.556519 -121.325935 16,950 90 370 1344
2022-05-18 22:04:08 GMT 47.556656 -121.340355 16,825 90 369 1472
2022-05-18 22:04:01 GMT 47.556747 -121.351410 16,600 90 368 1536
2022-05-18 22:03:58 GMT 47.556793 -121.358002 16,600 90 368 1536
2022-05-18 22:03:55 GMT 47.556931 -121.369812 16,525 90 367 1536
2022-05-18 22:03:51 GMT 47.557022 -121.378716 16,425 90 367 1536
2022-05-18 22:03:47 GMT 47.557209 -121.399696 16,225 90 366 1536
2022-05-18 22:03:42 GMT 47.557251 -121.409569 16,200 90 365 1536
2022-05-18 22:03:39 GMT 47.557251 -121.409569 16,100 90 365 1472
2022-05-18 22:03:35 GMT 47.557343 -121.417053 15,825 91 362 1408
2022-05-18 22:03:32 GMT 47.557434 -121.426460 15,950 90 364 1344
2022-05-18 22:03:28 GMT 47.557533 -121.435051 15,900 90 364 1344
2022-05-18 22:03:25 GMT 47.557617 -121.443352 15,775 91 363 1344
2022-05-18 22:03:21 GMT 47.557709 -121.452278 15,700 91 362 1344
2022-05-18 22:03:18 GMT 47.557846 -121.461205 15,625 91 362 1408
2022-05-18 22:03:14 GMT 47.558029 -121.470543 15,525 91 361 1472
2022-05-18 22:03:11 GMT 47.558231 -121.479073 15,450 91 361 1472
2022-05-18 22:03:07 GMT 47.558395 -121.486816 15,375 92 360 1536
2022-05-18 22:03:04 GMT 47.558578 -121.493958 15,300 92 360 1536
2022-05-18 22:03:00 GMT 47.558807 -121.503296 15,150 91 359 1536
2022-05-18 22:02:57 GMT 47.559036 -121.513115 15,125 91 359 1536
2022-05-18 22:02:54 GMT 47.559208 -121.520554 15,025 91 358 1472
2022-05-18 22:02:50 GMT 47.559402 -121.529526 14,925 91 358 1408
2022-05-18 22:02:47 GMT 47.559586 -121.537354 14,850 91 357 1344
2022-05-18 22:02:42 GMT 47.559769 -121.546349 14,700 92 357 1344
2022-05-18 22:02:39 GMT 47.559998 -121.555138 14,675 92 357 1344
2022-05-18 22:02:36 GMT 47.560226 -121.563171 14,600 92 356 1344
2022-05-18 22:02:32 GMT 47.560467 -121.571541 14,550 92 356 1280
2022-05-18 22:02:29 GMT 47.560730 -121.580887 14,450 92 355 1280
2022-05-18 22:02:26 GMT 47.560867 -121.584732 14,350 92 354 1344
2022-05-18 22:02:22 GMT 47.561279 -121.596611 14,300 92 353 1344
2022-05-18 22:02:18 GMT 47.561554 -121.605263 14,225 92 353 1408
2022-05-18 22:02:15 GMT 47.561874 -121.613708 14,125 92 352 1408
2022-05-18 22:02:12 GMT 47.562653 -121.637383 14,025 91 348 1408
2022-05-18 22:02:06 GMT 47.562653 -121.637383 13,900 92 351 1408
2022-05-18 22:02:02 GMT 47.562927 -121.645844 13,825 92 350 1344
2022-05-18 22:01:55 GMT 47.563305 -121.661682 13,675 91 348 1408
2022-05-18 22:01:51 GMT 47.563477 -121.669876 13,600 91 347 1408
2022-05-18 22:01:45 GMT 47.563751 -121.684570 13,450 90 346 1536
2022-05-18 22:01:41 GMT 47.563797 -121.695213 13,325 89 345 1600
2022-05-18 22:01:34 GMT 47.563614 -121.708878 13,175 87 344 1408
2022-05-18 22:01:31 GMT 47.563122 -121.718590 13,075 83 343 1216
2022-05-18 22:01:23 GMT 47.559769 -121.742950 12,925 76 340 832
2022-05-18 22:01:20 GMT 47.559769 -121.742950 12,900 72 337 896
2022-05-18 22:01:16 GMT 47.557159 -121.753304 12,800 66 333 1024
2022-05-18 22:01:13 GMT 47.556198 -121.756531 12,775 66 333 1088
2022-05-18 22:01:10 GMT 47.553864 -121.764153 12,725 65 332 1088
2022-05-18 22:01:04 GMT 47.549606 -121.777954 12,600 65 329 1152
2022-05-18 22:01:00 GMT 47.547272 -121.785507 12,525 65 327 1408
2022-05-18 22:00:56 GMT 47.544827 -121.793304 12,425 65 326 1408
2022-05-18 22:00:53 GMT 47.542824 -121.799789 12,325 65 326 1408
2022-05-18 22:00:49 GMT 47.540817 -121.806175 12,275 64 325 1344
2022-05-18 22:00:43 GMT 47.536213 -121.820488 12,125 64 322 1152
2022-05-18 22:00:38 GMT 47.533768 -121.827873 12,050 63 320 1152
2022-05-18 22:00:33 GMT 47.527359 -121.847168 11,925 63 316 1344
2022-05-18 22:00:29 GMT 47.527359 -121.847168 11,800 64 315 1280
2022-05-18 22:00:25 GMT 47.524429 -121.856094 11,750 64 314 1216
2022-05-18 22:00:22 GMT 47.522964 -121.860764 11,700 65 313 1280
2022-05-18 22:00:18 GMT 47.520813 -121.867493 11,625 65 311 1344
2022-05-18 22:00:12 GMT 47.517265 -121.879013 11,475 65 308 1408
2022-05-18 22:00:08 GMT 47.514565 -121.887817 11,375 65 307 1408
2022-05-18 22:00:02 GMT 47.511017 -121.899284 11,200 65 303 1280
2022-05-18 21:59:59 GMT 47.509644 -121.903816 11,175 65 302 1280
2022-05-18 21:59:56 GMT 47.508270 -121.908348 11,125 65 301 1216
2022-05-18 21:59:50 GMT 47.505020 -121.918785 11,000 65 297 1152
2022-05-18 21:59:47 GMT 47.502411 -121.927231 10,900 65 293 1408
2022-05-18 21:59:39 GMT 47.498703 -121.938972 10,700 65 287 1472
2022-05-18 21:59:36 GMT 47.496456 -121.946198 10,650 65 286 1472
2022-05-18 21:59:30 GMT 47.492889 -121.957512 10,475 65 282 1664
2022-05-18 21:59:26 GMT 47.490639 -121.964584 10,375 64 279 1600
2022-05-18 21:59:20 GMT 47.487579 -121.974266 10,175 64 276 1664
2022-05-18 21:59:17 GMT 47.486298 -121.978386 10,100 65 273 1600
2022-05-18 21:59:14 GMT 47.484833 -121.982986 10,050 65 273 1600
2022-05-18 21:59:11 GMT 47.482258 -121.991135 9,950 65 271 1600
2022-05-18 21:59:08 GMT 47.481236 -121.994514 9,900 65 270 1536
2022-05-18 21:59:04 GMT 47.479092 -122.001343 9,800 65 269 1600
2022-05-18 21:59:00 GMT 47.476810 -122.008881 9,600 65 265 1600
2022-05-18 21:58:57 GMT 47.475323 -122.013664 9,625 65 265 1536
2022-05-18 21:58:54 GMT 47.471832 -122.025284 9,525 66 263 1600
2022-05-18 21:58:50 GMT 47.471832 -122.025284 9,425 66 258 1472
2022-05-18 21:58:47 GMT 47.470688 -122.029198 9,375 65 260 1600
2022-05-18 21:58:44 GMT 47.469429 -122.037109 8,400 64 239 2688
2022-05-18 21:58:43 GMT 47.468472 -122.040047 8,400 64 239 2688
2022-05-18 21:58:41 GMT 47.467999 -122.041519 8,400 64 239 2688
2022-05-18 21:58:40 GMT 47.467522 -122.042992 8,400 64 239 2688
2022-05-18 21:58:38 GMT 47.466560 -122.045929 8,400 64 239 2688
2022-05-18 21:58:37 GMT 47.466080 -122.047401 8,400 64 239 2688
2022-05-18 21:58:36 GMT 47.465130 -122.050339 8,400 64 239 2688
2022-05-18 21:58:34 GMT 47.464649 -122.051811 8,400 64 239 2688
2022-05-18 21:58:33 GMT 47.463692 -122.054749 8,400 64 239 2688
2022-05-18 21:58:31 GMT 47.463211 -122.056221 8,400 64 239 2688
2022-05-18 21:58:30 GMT 47.462742 -122.057693 8,400 64 239 2688
2022-05-18 21:58:28 GMT 47.461781 -122.060631 8,400 64 239 2688
2022-05-18 21:58:27 GMT 47.461300 -122.062103 8,400 64 239 2688
2022-05-18 21:58:26 GMT 47.460339 -122.065041 8,400 64 239 2688
2022-05-18 21:58:24 GMT 47.459869 -122.066513 8,400 64 239 2688
2022-05-18 21:58:22 GMT 47.458912 -122.069450 8,400 64 239 2688
2022-05-18 21:58:21 GMT 47.458431 -122.070923 8,400 64 239 2688
2022-05-18 21:58:19 GMT 47.457470 -122.073853 8,400 64 239 2688
2022-05-18 21:58:18 GMT 47.457001 -122.075317 8,400 64 239 2688
2022-05-18 21:58:16 GMT 47.456039 -122.078262 8,400 64 239 2688
2022-05-18 21:58:15 GMT 47.455559 -122.079727 8,400 64 239 2688
2022-05-18 21:58:14 GMT 47.455078 -122.081200 8,400 64 239 2688
2022-05-18 21:58:12 GMT 47.454262 -122.084152 8,000 63 240 2688
2022-05-18 21:58:11 GMT 47.453781 -122.085617 8,000 63 240 2688
2022-05-18 21:58:10 GMT 47.453289 -122.087090 8,000 63 240 2688
2022-05-18 21:58:09 GMT 47.452419 -122.089981 8,000 63 241 1184
2022-05-18 21:58:07 GMT 47.451920 -122.091454 8,000 63 241 1184
2022-05-18 21:58:06 GMT 47.451431 -122.092934 8,000 63 241 1184
2022-05-18 21:58:05 GMT 47.450939 -122.094398 8,000 63 241 1184
2022-05-18 21:58:03 GMT 47.450020 -122.097649 7,700 62 237 1184
2022-05-18 21:58:02 GMT 47.449532 -122.099091 7,700 62 237 1184
2022-05-18 21:58:00 GMT 47.448528 -122.101967 7,700 62 237 1184
2022-05-18 21:57:59 GMT 47.448139 -122.103363 7,400 62 239 1184
2022-05-18 21:57:58 GMT 47.447639 -122.104813 7,400 62 239 1184
2022-05-18 21:57:56 GMT 47.446629 -122.107712 7,400 62 239 1184
2022-05-18 21:57:55 GMT 47.446159 -122.109161 7,400 62 239 1184
2022-05-18 21:57:54 GMT 47.445648 -122.110611 7,400 62 239 1184
2022-05-18 21:57:52 GMT 47.444641 -122.113503 7,400 62 239 1184
2022-05-18 21:57:51 GMT 47.444141 -122.114952 7,400 62 239 1184
2022-05-18 21:57:49 GMT 47.443199 -122.117950 7,200 61 238 1184
2022-05-18 21:57:48 GMT 47.442692 -122.119377 7,200 61 238 1184
2022-05-18 21:57:47 GMT 47.441669 -122.122253 7,200 61 238 1184
2022-05-18 21:57:46 GMT 47.441360 -122.123810 6,800 61 237 1184
2022-05-18 21:57:44 GMT 47.440830 -122.125237 6,800 61 237 1184
2022-05-18 21:57:43 GMT 47.439789 -122.128082 6,800 61 237 1184
2022-05-18 21:57:41 GMT 47.439369 -122.129539 6,800 60 238 1184
2022-05-18 21:57:40 GMT 47.438309 -122.132378 6,800 60 238 1184
2022-05-18 21:57:38 GMT 47.437778 -122.133797 6,800 60 238 1184
2022-05-18 21:57:37 GMT 47.436840 -122.136650 6,400 60 238 1184
2022-05-18 21:57:35 GMT 47.436298 -122.138069 6,400 60 238 1184
2022-05-18 21:57:34 GMT 47.435230 -122.140900 6,400 60 238 1184
2022-05-18 21:57:32 GMT 47.434761 -122.142448 6,400 60 237 1184
2022-05-18 21:57:31 GMT 47.433681 -122.145264 6,400 60 237 1184
2022-05-18 21:57:29 GMT 47.433140 -122.146667 6,400 60 237 1184
2022-05-18 21:57:28 GMT 47.432598 -122.148071 6,400 60 237 1184
2022-05-18 21:57:26 GMT 47.431610 -122.150864 6,200 60 238 1184
2022-05-18 21:57:25 GMT 47.431068 -122.152260 6,200 60 238 1184
2022-05-18 21:57:24 GMT 47.429970 -122.155083 6,200 60 238 1184
2022-05-18 21:57:22 GMT 47.429451 -122.156509 5,800 60 238 1184
2022-05-18 21:57:21 GMT 47.428902 -122.157921 5,800 60 238 1184
2022-05-18 21:57:20 GMT 47.427799 -122.160728 5,800 60 238 1184
2022-05-18 21:57:19 GMT 47.427391 -122.161880 5,800 61 238 1184
2022-05-18 21:57:17 GMT 47.426319 -122.164726 5,800 61 238 1184
2022-05-18 21:57:15 GMT 47.425789 -122.166153 5,800 61 238 1184
2022-05-18 21:57:14 GMT 47.425251 -122.167572 5,800 61 238 1184
2022-05-18 21:57:12 GMT 47.424000 -122.170380 5,600 61 237 1184
2022-05-18 21:57:11 GMT 47.422981 -122.173233 5,600 61 237 1184
2022-05-18 21:57:09 GMT 47.422470 -122.174660 5,600 61 237 1184
2022-05-18 21:57:08 GMT 47.421951 -122.175987 5,500 61 237 1344
2022-05-18 21:57:07 GMT 47.420929 -122.178848 5,500 61 237 1344
2022-05-18 21:57:05 GMT 47.420410 -122.180290 5,500 61 237 1344
2022-05-18 21:57:03 GMT 47.419510 -122.183540 5,300 60 232 1344
2022-05-18 21:57:02 GMT 47.418980 -122.184914 5,300 60 232 1344
2022-05-18 21:57:01 GMT 47.417919 -122.187653 5,300 60 232 1344
2022-05-18 21:56:59 GMT 47.417412 -122.189003 4,800 60 233 1344
2022-05-18 21:56:58 GMT 47.416351 -122.191757 4,800 60 233 1344
2022-05-18 21:56:56 GMT 47.415821 -122.193138 4,800 60 233 1344
2022-05-18 21:56:55 GMT 47.415550 -122.194458 4,800 59 237 1344
2022-05-18 21:56:53 GMT 47.414440 -122.197243 4,800 59 237 1344
2022-05-18 21:56:52 GMT 47.413879 -122.198631 4,800 59 237 1344
2022-05-18 21:56:50 GMT 47.412868 -122.201248 4,300 60 240 1344
2022-05-18 21:56:49 GMT 47.411770 -122.204079 4,300 60 240 1344
2022-05-18 21:56:47 GMT 47.411209 -122.205498 4,300 60 240 1344
2022-05-18 21:56:46 GMT 47.410709 -122.206749 4,300 61 241 1344
2022-05-18 21:56:44 GMT 47.409630 -122.209633 4,300 61 241 1344
2022-05-18 21:56:43 GMT 47.409088 -122.211067 4,300 61 241 1344
2022-05-18 21:56:42 GMT 47.408550 -122.212509 4,300 61 241 1344
2022-05-18 21:56:41 GMT 47.407681 -122.215378 4,100 61 241 1344
2022-05-18 21:56:39 GMT 47.407139 -122.216820 4,100 61 241 1344
2022-05-18 21:56:38 GMT 47.406071 -122.219704 4,100 61 241 1344
2022-05-18 21:56:36 GMT 47.405689 -122.221382 3,800 63 235 1344
2022-05-18 21:56:35 GMT 47.405182 -122.222801 3,800 63 235 1344
2022-05-18 21:56:33 GMT 47.404171 -122.225616 3,800 63 235 1344
2022-05-18 21:56:32 GMT 47.403770 -122.226891 3,800 67 234 1344
2022-05-18 21:56:31 GMT 47.403309 -122.228340 3,800 67 234 1344
2022-05-18 21:56:29 GMT 47.402409 -122.231239 3,800 67 234 1344
2022-05-18 21:56:28 GMT 47.401951 -122.232689 3,800 67 234 1344
2022-05-18 21:56:27 GMT 47.401390 -122.233772 3,700 74 235 1344
2022-05-18 21:56:25 GMT 47.400688 -122.236809 3,700 74 235 1344
2022-05-18 21:56:24 GMT 47.400341 -122.238327 3,700 74 235 1344
2022-05-18 21:56:22 GMT 47.399269 -122.240959 3,500 81 237 1344
2022-05-18 21:56:21 GMT 47.399090 -122.242554 3,500 81 237 1344
2022-05-18 21:56:20 GMT 47.398731 -122.245743 3,500 81 237 1344
2022-05-18 21:56:18 GMT 47.398491 -122.247276 3,300 84 236 1344
2022-05-18 21:56:17 GMT 47.398281 -122.248833 3,300 86 236 1344
2022-05-18 21:56:16 GMT 47.398090 -122.251999 3,300 89 234 1344
2022-05-18 21:56:14 GMT 47.398010 -122.253571 3,300 91 232 1344
2022-05-18 21:56:12 GMT 47.397968 -122.256706 3,200 97 228 1344
2022-05-18 21:56:11 GMT 47.398060 -122.258263 3,200 100 226 1344
2022-05-18 21:56:10 GMT 47.398178 -122.259804 3,200 102 224 1344
2022-05-18 21:56:08 GMT 47.398529 -122.262772 3,100 107 221 512
2022-05-18 21:56:07 GMT 47.398781 -122.264221 3,100 109 220 512
2022-05-18 21:56:05 GMT 47.399380 -122.267036 3,100 112 218 512
2022-05-18 21:56:04 GMT 47.399719 -122.268387 2,800 115 218 512
2022-05-18 21:56:02 GMT 47.400520 -122.271072 2,800 119 214 512
2022-05-18 21:56:01 GMT 47.400959 -122.272400 2,800 121 211 512
2022-05-18 21:56:00 GMT 47.401409 -122.273598 2,800 123 211 512
2022-05-18 21:55:59 GMT 47.402439 -122.276062 2,800 128 205 512
2022-05-18 21:55:57 GMT 47.402969 -122.277229 2,800 130 202 512
2022-05-18 21:55:55 GMT 47.404091 -122.279442 2,700 136 198 512
2022-05-18 21:55:54 GMT 47.404690 -122.280540 2,700 139 194 512
2022-05-18 21:55:53 GMT 47.405331 -122.281540 2,700 141 191 512
2022-05-18 21:55:51 GMT 47.406670 -122.283318 2,700 145 187 512
2022-05-18 21:55:50 GMT 47.407341 -122.284119 2,500 146 186 512
2022-05-18 21:55:48 GMT 47.408791 -122.285591 2,500 147 183 512
2022-05-18 21:55:47 GMT 47.409512 -122.286278 2,500 147 182 512
2022-05-18 21:55:45 GMT 47.410912 -122.287651 2,400 147 184 512
2022-05-18 21:55:44 GMT 47.411610 -122.288307 2,400 147 185 512
2022-05-18 21:55:43 GMT 47.413059 -122.289673 2,400 147 182 512
2022-05-18 21:55:41 GMT 47.413769 -122.290329 2,325 147 182 512
2022-05-18 21:55:40 GMT 47.414478 -122.290993 2,325 147 180 512
2022-05-18 21:55:39 GMT 47.415890 -122.292267 2,200 145 179 512
2022-05-18 21:55:37 GMT 47.416580 -122.292931 2,200 145 178 512
2022-05-18 21:55:36 GMT 47.417252 -122.293579 2,200 145 178 512
2022-05-18 21:55:34 GMT 47.418598 -122.294952 2,200 144 174 512
2022-05-18 21:55:33 GMT 47.419289 -122.295624 2,200 144 172 512
2022-05-18 21:55:32 GMT 47.420559 -122.296921 2,100 145 171 512
2022-05-18 21:55:30 GMT 47.421200 -122.297592 2,100 145 169 512
2022-05-18 21:55:29 GMT 47.421848 -122.298210 2,100 145 168 512
2022-05-18 21:55:28 GMT 47.423180 -122.299500 2,100 146 159 -96
2022-05-18 21:55:26 GMT 47.423790 -122.300117 2,100 146 156 3776
2022-05-18 21:55:25 GMT 47.425179 -122.301399 2,100 147 138 3776
2022-05-18 21:55:23 GMT 47.425739 -122.301933 2,050 148 137 3776
2022-05-18 21:55:21 GMT 47.426762 -122.302818 1,525 151 149 3776
2022-05-18 21:55:20 GMT 47.427311 -122.303268 1,525 152 154 3776
2022-05-18 21:55:19 GMT 47.427929 -122.303780 1,525 154 151 3776
2022-05-18 21:55:17 GMT 47.429199 -122.304626 1,525 156 145 3776
2022-05-18 21:55:16 GMT 47.429810 -122.305038 1,525 158 144 3776
2022-05-18 21:55:15 GMT 47.431019 -122.305801 1,525 164 143 3776
2022-05-18 21:55:13 GMT 47.431660 -122.306068 1,525 165 142 3776
2022-05-18 21:55:11 GMT 47.432919 -122.306602 1,525 170 142 3776
2022-05-18 21:55:10 GMT 47.433529 -122.306877 1,525 173 144 3776
2022-05-18 21:55:08 GMT 47.434898 -122.307167 1,375 177 131 3776
2022-05-18 21:55:07 GMT 47.435478 -122.307152 1,375 175 139 224
2022-05-18 21:55:06 GMT 47.436771 -122.307327 1,200 178 136 224
2022-05-18 21:55:04 GMT 47.437382 -122.307327 1,200 176 142 224
2022-05-18 21:55:02 GMT 47.438679 -122.307426 1,100 176 143 224
2022-05-18 21:55:01 GMT 47.439400 -122.307602 950 180 131 224
2022-05-18 21:55:00 GMT 47.440609 -122.307579 950 180 148 224
2022-05-18 21:54:58 GMT 47.441299 -122.307564 925 178 144 224
2022-05-18 21:54:57 GMT 47.441952 -122.307610 850 179 146 224
2022-05-18 21:54:56 GMT 47.443279 -122.307678 800 181 141 224
2022-05-18 21:54:54 GMT 47.443932 -122.307663 800 181 142 224
2022-05-18 21:54:52 GMT 47.445202 -122.307579 700 178 147 224
2022-05-18 21:54:51 GMT 47.445919 -122.307610 650 180 132 224
2022-05-18 21:54:50 GMT 47.447189 -122.307549 550 177 132 224
2022-05-18 21:54:48 GMT 47.447762 -122.307648 525 179 140 224
2022-05-18 21:54:47 GMT 47.448399 -122.307663 475 179 140 224
2022-05-18 21:54:45 GMT 47.449650 -122.307701 450 180 140 224
2022-05-18 21:54:44 GMT 47.450359 -122.307693 425 179 130 224
2022-05-18 21:54:43 GMT 47.451569 -122.307632 350 177 134 224
2022-05-18 21:54:41 GMT 47.452141 -122.307663 225 177 135 224
2022-05-18 21:54:39 GMT 47.453339 -122.307716 225 177 136 224
2022-05-18 21:54:38 GMT 47.454559 -122.307808 225 178 130 -352
2022-05-18 21:54:36 GMT 47.455139 -122.307808 225 179 129 -352
2022-05-18 21:54:35 GMT 47.455730 -122.307861 275 180 123 -352
2022-05-18 21:54:33 GMT 47.456879 -122.307861 300 180 112 -352
2022-05-18 21:54:32 GMT 47.457401 -122.307838 300 180 108 -352
2022-05-18 21:54:30 GMT 47.458359 -122.307831 325 180 101
2022-05-18 21:54:29 GMT 47.458832 -122.307823 325 180 95
2022-05-18 21:54:28 GMT 47.459270 -122.307808 0 180 90
2022-05-18 21:54:26 GMT 47.460110 -122.307793 0 180 77
2022-05-18 21:54:25 GMT 47.460468 -122.307800 0 180 74
2022-05-18 21:54:24 GMT 47.460838 -122.307793 0 180 64
2022-05-18 21:54:23 GMT 47.461449 -122.307747 0 178 53
2022-05-18 21:54:21 GMT 47.461720 -122.307762 0 179 46
2022-05-18 21:54:19 GMT 47.462181 -122.307770 0 180 34
2022-05-18 21:54:18 GMT 47.462379 -122.307762 0 180 27
2022-05-18 21:54:17 GMT 47.462688 -122.307747 0 179 16
2022-05-18 21:54:15 GMT 47.462791 -122.307762 0 182 14
2022-05-18 21:54:14 GMT 47.462959 -122.307739 0 174 6
2022-05-18 21:54:12 GMT 47.462990 -122.307739 0 174 5
2022-05-18 21:54:10 GMT 47.463020 -122.307762 0 179 7
2022-05-18 21:54:09 GMT 47.463051 -122.307762 0 179 8
2022-05-18 21:54:08 GMT 47.463131 -122.307762 0 185 5
2022-05-18 21:54:06 GMT 47.463161 -122.307762 0 184 5
2022-05-18 21:54:05 GMT 47.463181 -122.307770 0 184 6
2022-05-18 21:54:03 GMT 47.463230 -122.307762 0 181 6
2022-05-18 21:54:02 GMT 47.463261 -122.307732 0 173 7
2022-05-18 21:54:01 GMT 47.463329 -122.307739 0 182 5
2022-05-18 21:53:59 GMT 47.463341 -122.307770 0 196 6
2022-05-18 21:53:58 GMT 47.463360 -122.307777 0 205 8
2022-05-18 21:53:56 GMT 47.463428 -122.307739 0 211 6
2022-05-18 21:53:55 GMT 47.463490 -122.307693 0 214 5
2022-05-18 21:53:53 GMT 47.463501 -122.307678 0 219 6
2022-05-18 21:53:52 GMT 47.463551 -122.307671 0 239 9
2022-05-18 21:53:50 GMT 47.463570 -122.307640 0 238 11
2022-05-18 21:53:49 GMT 47.463589 -122.307541 0 235 8
2022-05-18 21:53:47 GMT 47.463638 -122.307449 0 238 7
2022-05-18 21:53:46 GMT 47.463661 -122.307411 0 239 7
2022-05-18 21:53:44 GMT 47.463692 -122.307327 0 244 9
2022-05-18 21:53:43 GMT 47.463718 -122.307281 0 248 9
2022-05-18 21:53:42 GMT 47.463772 -122.307167 0 263 8
2022-05-18 21:53:40 GMT 47.463791 -122.307121 0 267 7
2022-05-18 21:53:39 GMT 47.463810 -122.307007 0 279 7
2022-05-18 21:53:37 GMT 47.463810 -122.306969 0 282 7
2022-05-18 21:53:36 GMT 47.463810 -122.306908 0 286 7
2022-05-18 21:53:34 GMT 47.463799 -122.306831 0 289 8
2022-05-18 21:53:33 GMT 47.463791 -122.306763 0 287 6
2022-05-18 21:53:32 GMT 47.463749 -122.306702 0 281 7
2022-05-18 21:53:30 GMT 47.463772 -122.306648 0 293 8
2022-05-18 21:53:29 GMT 47.463760 -122.306580 0 298 6
2022-05-18 21:53:27 GMT 47.463760 -122.306450 0 303 6
2022-05-18 21:53:26 GMT 47.463692 -122.306458 0 293 4
2022-05-18 21:53:24 GMT 47.463711 -122.306396 0 325 7
2022-05-18 21:53:23 GMT 47.463699 -122.306374 0 331 9
2022-05-18 21:53:22 GMT 47.463669 -122.306313 0 332 8
2022-05-18 21:53:21 GMT 47.463650 -122.306313 0 336 9
2022-05-18 21:53:19 GMT 47.463589 -122.306252 0 343 11
2022-05-18 21:53:17 GMT 47.463520 -122.306183 0 354 12
2022-05-18 21:53:16 GMT 47.463459 -122.306160 0 357 12
2022-05-18 21:53:15 GMT 47.463409 -122.306152 0 357 13
2022-05-18 21:53:13 GMT 47.463299 -122.306122 0 3 15
2022-05-18 21:53:12 GMT 47.463230 -122.306129 0 3 15
2022-05-18 21:53:11 GMT 47.463089 -122.306152 0 0 14
2022-05-18 21:53:09 GMT 47.463032 -122.306160 0 358 15
2022-05-18 21:53:08 GMT 47.462940 -122.306160 0 358 12
2022-05-18 21:53:06 GMT 47.462841 -122.306160 0 356 13
2022-05-18 21:53:05 GMT 47.462799 -122.306152 0 357 15
2022-05-18 21:53:03 GMT 47.462669 -122.306129 0 4 17
2022-05-18 21:53:02 GMT 47.462589 -122.306152 0 3 16
2022-05-18 21:53:01 GMT 47.462448 -122.306152 0 4 18
2022-05-18 21:52:59 GMT 47.462372 -122.306152 0 5 18
2022-05-18 21:52:58 GMT 47.462292 -122.306190 0 358 18
2022-05-18 21:52:56 GMT 47.462120 -122.306190 0 355 17
2022-05-18 21:52:55 GMT 47.462040 -122.306168 0 357 17
2022-05-18 21:52:54 GMT 47.461899 -122.306137 0 3 18
2022-05-18 21:52:52 GMT 47.461819 -122.306160 0 1 19
2022-05-18 21:52:51 GMT 47.461712 -122.306183 0 357 17
2022-05-18 21:52:49 GMT 47.461578 -122.306183 0 356 20
2022-05-18 21:52:47 GMT 47.461380 -122.306137 0 3 20
2022-05-18 21:52:46 GMT 47.461201 -122.306168 0 0 23
2022-05-18 21:52:44 GMT 47.461071 -122.306190 0 357 20
2022-05-18 21:52:43 GMT 47.460979 -122.306183 0 359 20
2022-05-18 21:52:41 GMT 47.460800 -122.306160 0 3 21
2022-05-18 21:52:40 GMT 47.460709 -122.306168 0 0 22
2022-05-18 21:52:38 GMT 47.460510 -122.306183 0 358 21
2022-05-18 21:52:37 GMT 47.460411 -122.306190 0 357 21
2022-05-18 21:52:36 GMT 47.460209 -122.306160 0 2 20
2022-05-18 21:52:34 GMT 47.460121 -122.306168 0 1 20
2022-05-18 21:52:33 GMT 47.460018 -122.306183 0 359 19
2022-05-18 21:52:32 GMT 47.459850 -122.306160 0 3 22
2022-05-18 21:52:30 GMT 47.459740 -122.306183 0 0 21
2022-05-18 21:52:29 GMT 47.459641 -122.306190 0 359 21
2022-05-18 21:52:28 GMT 47.459560 -122.306183 0 0 22
2022-05-18 21:52:26 GMT 47.459339 -122.306213 0 355 20
2022-05-18 21:52:25 GMT 47.459259 -122.306190 0 358 21
2022-05-18 21:52:24 GMT 47.459049 -122.306168 0 3 20
2022-05-18 21:52:22 GMT 47.458981 -122.306168 0 2 22
2022-05-18 21:52:20 GMT 47.458771 -122.306183 0 3 23
2022-05-18 21:52:19 GMT 47.458679 -122.306190 0 2 25
2022-05-18 21:52:17 GMT 47.458431 -122.306236 0 354 21
2022-05-18 21:52:16 GMT 47.458340 -122.306213 0 357 23
2022-05-18 21:52:14 GMT 47.458141 -122.306190 0 359 24
2022-05-18 21:52:13 GMT 47.458031 -122.306190 0 0 24
2022-05-18 21:52:12 GMT 47.457809 -122.306190 0 359 25
2022-05-18 21:52:10 GMT 47.457691 -122.306190 0 0 24
2022-05-18 21:52:09 GMT 47.457451 -122.306190 0 2 21
2022-05-18 21:52:07 GMT 47.457371 -122.306190 0 1 24
2022-05-18 21:52:05 GMT 47.457142 -122.306221 0 359 23
2022-05-18 21:52:04 GMT 47.457039 -122.306221 0 358 24
2022-05-18 21:52:03 GMT 47.456928 -122.306221 0 359 23
2022-05-18 21:52:01 GMT 47.456699 -122.306198 0 1 23
2022-05-18 21:52:00 GMT 47.456600 -122.306190 0 4 23
2022-05-18 21:51:58 GMT 47.456379 -122.306229 0 0 23
2022-05-18 21:51:57 GMT 47.456268 -122.306229 0 0 24
2022-05-18 21:51:56 GMT 47.456051 -122.306221 0 359 24
2022-05-18 21:51:54 GMT 47.455929 -122.306213 0 359 23
2022-05-18 21:51:53 GMT 47.455711 -122.306198 0 2 22
2022-05-18 21:51:51 GMT 47.455608 -122.306198 0 2 22
2022-05-18 21:51:49 GMT 47.455399 -122.306236 0 358 23
2022-05-18 21:51:48 GMT 47.455280 -122.306252 0 355 21
2022-05-18 21:51:46 GMT 47.455090 -122.306221 0 359 22
2022-05-18 21:51:45 GMT 47.454990 -122.306198 0 3 21
2022-05-18 21:51:43 GMT 47.454811 -122.306221 0 3 23
2022-05-18 21:51:42 GMT 47.454700 -122.306236 0 0 23
2022-05-18 21:51:41 GMT 47.454479 -122.306252 0 357 21
2022-05-18 21:51:39 GMT 47.454380 -122.306252 0 356 21
2022-05-18 21:51:38 GMT 47.454288 -122.306229 0 358 21
2022-05-18 21:51:36 GMT 47.454079 -122.306213 0 4 19
2022-05-18 21:51:35 GMT 47.453999 -122.306221 0 3 21
2022-05-18 21:51:33 GMT 47.453800 -122.306236 0 3 20
2022-05-18 21:51:31 GMT 47.453629 -122.306267 0 359 23
2022-05-18 21:51:30 GMT 47.453522 -122.306267 0 357 23
2022-05-18 21:51:29 GMT 47.453419 -122.306252 0 359 22
2022-05-18 21:51:27 GMT 47.453190 -122.306259 0 358 21
2022-05-18 21:51:26 GMT 47.453098 -122.306252 0 0 21
2022-05-18 21:51:25 GMT 47.452911 -122.306259 0 358 23
2022-05-18 21:51:23 GMT 47.452808 -122.306252 0 0 23
2022-05-18 21:51:22 GMT 47.452702 -122.306229 0 3 23
2022-05-18 21:51:20 GMT 47.452511 -122.306282 0 359 25
2022-05-18 21:51:19 GMT 47.452400 -122.306236 0 4 25
2022-05-18 21:51:17 GMT 47.452160 -122.306320 0 353 25
2022-05-18 21:51:16 GMT 47.452042 -122.306290 0 355 24
2022-05-18 21:51:14 GMT 47.451809 -122.306236 0 1 22
2022-05-18 21:51:13 GMT 47.451710 -122.306252 0 0 24
2022-05-18 21:51:12 GMT 47.451488 -122.306252 0 1 26
2022-05-18 21:51:10 GMT 47.451382 -122.306236 0 2 27
2022-05-18 21:51:09 GMT 47.451248 -122.306267 0 0 26
2022-05-18 21:51:07 GMT 47.451000 -122.306267 0 1 26
2022-05-18 21:51:06 GMT 47.450901 -122.306267 0 2 29
2022-05-18 21:51:05 GMT 47.450771 -122.306259 0 3 30
2022-05-18 21:51:03 GMT 47.450481 -122.306297 0 359 28
2022-05-18 21:51:02 GMT 47.450340 -122.306320 0 356 27
2022-05-18 21:51:00 GMT 47.450100 -122.306297 0 355 30
2022-05-18 21:50:59 GMT 47.449959 -122.306267 0 358 28
2022-05-18 21:50:58 GMT 47.449699 -122.306229 0 3 28
2022-05-18 21:50:56 GMT 47.449558 -122.306259 0 1 27
2022-05-18 21:50:54 GMT 47.449299 -122.306267 0 0 25
2022-05-18 21:50:53 GMT 47.449081 -122.306259 0 2 26
2022-05-18 21:50:51 GMT 47.448959 -122.306290 0 0 26
2022-05-18 21:50:50 GMT 47.448830 -122.306297 0 358 26
2022-05-18 21:50:48 GMT 47.448601 -122.306267 0 2 25
2022-05-18 21:50:47 GMT 47.448479 -122.306252 0 5 25
2022-05-18 21:50:45 GMT 47.448238 -122.306313 0 359 23
2022-05-18 21:50:44 GMT 47.448139 -122.306290 0 2 25
2022-05-18 21:50:42 GMT 47.447899 -122.306313 0 1 25
2022-05-18 21:50:41 GMT 47.447781 -122.306320 0 359 23
2022-05-18 21:50:39 GMT 47.447578 -122.306343 0 358 25
2022-05-18 21:50:38 GMT 47.447460 -122.306328 0 359 24
2022-05-18 21:50:37 GMT 47.447231 -122.306351 0 356 21
2022-05-18 21:50:35 GMT 47.447121 -122.306343 0 357 20
2022-05-18 21:50:34 GMT 47.447021 -122.306343 0 355 21
2022-05-18 21:50:33 GMT 47.446838 -122.306290 0 0 23
2022-05-18 21:50:31 GMT 47.446720 -122.306290 0 0 20
2022-05-18 21:50:30 GMT 47.446541 -122.306282 0 1 22
2022-05-18 21:50:28 GMT 47.446430 -122.306290 0 1 21
2022-05-18 21:50:27 GMT 47.446331 -122.306320 0 356 21
2022-05-18 21:50:25 GMT 47.446129 -122.306267 0 3 19
2022-05-18 21:50:24 GMT 47.446041 -122.306267 0 3 18
2022-05-18 21:50:23 GMT 47.445881 -122.306297 0 357 18
2022-05-18 21:50:21 GMT 47.445801 -122.306290 0 1 18
2022-05-18 21:50:20 GMT 47.445709 -122.306259 0 7 19
2022-05-18 21:50:18 GMT 47.445530 -122.306290 0 6 18
2022-05-18 21:50:17 GMT 47.445358 -122.306381 0 353 15
2022-05-18 21:50:15 GMT 47.445278 -122.306351 0 355 14
2022-05-18 21:50:13 GMT 47.445141 -122.306351 0 356 13
2022-05-18 21:50:12 GMT 47.445091 -122.306320 0 358 14
2022-05-18 21:50:10 GMT 47.444962 -122.306320 0 359 14
2022-05-18 21:50:09 GMT 47.444839 -122.306290 0 7 14
2022-05-18 21:50:07 GMT 47.444771 -122.306297 0 2 13
2022-05-18 21:50:06 GMT 47.444710 -122.306351 0 356 14
2022-05-18 21:50:04 GMT 47.444569 -122.306351 0 348 10
2022-05-18 21:50:03 GMT 47.444530 -122.306351 0 342 12
2022-05-18 21:50:02 GMT 47.444489 -122.306351 0 339 14
2022-05-18 21:50:00 GMT 47.444351 -122.306282 0 331 10
2022-05-18 21:49:59 GMT 47.444302 -122.306267 0 327 9
2022-05-18 21:49:57 GMT 47.444229 -122.306236 0 314 10
2022-05-18 21:49:56 GMT 47.444160 -122.306160 0 309 11
2022-05-18 21:49:54 GMT 47.444118 -122.306099 0 306 9
2022-05-18 21:49:52 GMT 47.444069 -122.305992 0 311 7
2022-05-18 21:49:51 GMT 47.444038 -122.305931 0 310 5
2022-05-18 21:49:49 GMT 47.444012 -122.305923 0 307 8
2022-05-18 21:49:48 GMT 47.443981 -122.305794 0 313 6
2022-05-18 21:49:46 GMT 47.443958 -122.305779 0 307 7
2022-05-18 21:49:45 GMT 47.443939 -122.305771 0 307 8
2022-05-18 21:49:43 GMT 47.443890 -122.305672 0 296 6
2022-05-18 21:49:42 GMT 47.443871 -122.305641 0 293 5
2022-05-18 21:49:41 GMT 47.443878 -122.305527 0 271 5
2022-05-18 21:49:39 GMT 47.443859 -122.305511 0 189 6
2022-05-18 21:49:37 GMT 47.443802 -122.305519 0 180 2
2022-05-18 21:49:36 GMT 47.443790 -122.305519 0 174 2
2022-05-18 21:49:35 GMT 47.443729 -122.305473 0 169 1
2022-05-18 21:49:34 GMT 47.443710 -122.305450 0 169 0
2022-05-18 21:49:32 GMT 47.443710 -122.305450 0 169 0
2022-05-18 21:49:30 GMT 47.443699 -122.305443 0 169 0
2022-05-18 21:49:29 GMT 47.443699 -122.305428 0 169 0
2022-05-18 21:49:27 GMT 47.443699 -122.305450 0 170 0
2022-05-18 21:49:26 GMT 47.443691 -122.305420 0 170 0
2022-05-18 21:49:25 GMT 47.443691 -122.305443 0 170 0
2022-05-18 21:49:22 GMT 47.443699 -122.305428 0 170 0
2022-05-18 21:49:20 GMT 47.443691 -122.305428 0 170 0
2022-05-18 21:49:18 GMT 47.443691 -122.305443 0 170 0
2022-05-18 21:49:17 GMT 47.443668 -122.305428 0 170 1
2022-05-18 21:49:14 GMT 47.443710 -122.305420 0 170 0
2022-05-18 21:49:10 GMT 47.443699 -122.305443 0 170 0
2022-05-18 21:49:08 GMT 47.443710 -122.305443 0 170 0
2022-05-18 21:49:07 GMT 47.443722 -122.305428 0 170 1
2022-05-18 21:49:05 GMT 47.443722 -122.305420 0 171 1
2022-05-18 21:49:03 GMT 47.443691 -122.305458 0 171 0
2022-05-18 21:49:01 GMT 47.443680 -122.305458 0 171 0
2022-05-18 21:48:57 GMT 47.443691 -122.305450 0 171 0
2022-05-18 21:48:56 GMT 47.443691 -122.305458 0 170 1
2022-05-18 21:48:54 GMT 47.443691 -122.305481 0 169 2
2022-05-18 21:48:53 GMT 47.443710 -122.305397 0 169 1
2022-05-18 21:48:52 GMT 47.443680 -122.305458 0 169 0
2022-05-18 21:48:50 GMT 47.443680 -122.305458 0 169 0
2022-05-18 21:48:49 GMT 47.443699 -122.305450 0 169 0
2022-05-18 21:48:47 GMT 47.443691 -122.305458 0 169 0
2022-05-18 21:48:46 GMT 47.443668 -122.305450 0 169 1
2022-05-18 21:48:45 GMT 47.443680 -122.305428 0 169 0
2022-05-18 21:48:43 GMT 47.443691 -122.305428 0 168 1
2022-05-18 21:48:42 GMT 47.443699 -122.305428 0 168 0
2022-05-18 21:48:41 GMT 47.443680 -122.305473 0 168 1
2022-05-18 21:48:40 GMT 47.443668 -122.305458 0 167 1
2022-05-18 21:48:37 GMT 47.443722 -122.305428 0 167 0
2022-05-18 21:48:34 GMT 47.443722 -122.305443 0 169 0
2022-05-18 21:48:33 GMT 47.443729 -122.305428 0 169 0
2022-05-18 21:48:31 GMT 47.443760 -122.305412 0 171 2
2022-05-18 21:48:29 GMT 47.443722 -122.305443 0 173 0
2022-05-18 21:48:28 GMT 47.443710 -122.305443 0 173 0
2022-05-18 21:48:27 GMT 47.443699 -122.305443 0 173 0
2022-05-18 21:48:25 GMT 47.443691 -122.305443 0 173 0
2022-05-18 21:48:22 GMT 47.443699 -122.305443 0 173 0
2022-05-18 21:48:20 GMT 47.443699 -122.305420 0 173 0
2022-05-18 21:48:16 GMT 47.443699 -122.305420 0 173 0
2022-05-18 21:48:14 GMT 47.443691 -122.305428 0 173 0
2022-05-18 21:48:13 GMT 47.443691 -122.305443 0 173 0
2022-05-18 21:48:12 GMT 47.443680 -122.305450 0 173 0
2022-05-18 21:48:11 GMT 47.443668 -122.305458 0 173 0
2022-05-18 21:48:09 GMT 47.443691 -122.305443 0 173 0
2022-05-18 21:48:07 GMT 47.443699 -122.305443 0 173 0
2022-05-18 21:48:06 GMT 47.443691 -122.305481 0 173 0
2022-05-18 21:48:04 GMT 47.443680 -122.305450 0 173 0
2022-05-18 21:48:02 GMT 47.443680 -122.305450 0 173 0
2022-05-18 21:48:01 GMT 47.443680 -122.305458 0 173 0
2022-05-18 21:47:58 GMT 47.443691 -122.305443 0 173 0
2022-05-18 21:47:56 GMT 47.443691 -122.305458 0 173 2
2022-05-18 21:47:55 GMT 47.443691 -122.305412 0 173 0
2022-05-18 21:47:54 GMT 47.443680 -122.305428 0 173 2
2022-05-18 21:47:52 GMT 47.443680 -122.305428 0 173 2
2022-05-18 21:47:51 GMT 47.443722 -122.305412 0 173 0
2022-05-18 21:47:49 GMT 47.443722 -122.305412 0 173 1
2022-05-18 21:47:48 GMT 47.443710 -122.305420 0 173 0
2022-05-18 21:47:46 GMT 47.443722 -122.305420 0 173 1
2022-05-18 21:47:44 GMT 47.443699 -122.305428 0 175 0
2022-05-18 21:47:43 GMT 47.443699 -122.305443 0 175 0
2022-05-18 21:47:42 GMT 47.443691 -122.305443 0 174 0
2022-05-18 21:47:41 GMT 47.443710 -122.305443 0 172 1
2022-05-18 21:47:39 GMT 47.443699 -122.305412 0 170 1
2022-05-18 21:47:37 GMT 47.443699 -122.305428 0 170 1
2022-05-18 21:47:36 GMT 47.443722 -122.305412 0 170 1
2022-05-18 21:47:35 GMT 47.443710 -122.305412 0 167 0
2022-05-18 21:47:33 GMT 47.443699 -122.305389 0 167 1
2022-05-18 21:47:32 GMT 47.443710 -122.305382 0 169 1
2022-05-18 21:47:31 GMT 47.443710 -122.305397 0 174 1
2022-05-18 21:47:29 GMT 47.443710 -122.305412 0 180 1
2022-05-18 21:47:28 GMT 47.443699 -122.305443 0 185 1
2022-05-18 21:47:27 GMT 47.443710 -122.305450 0 185 1
2022-05-18 21:47:25 GMT 47.443680 -122.305481 0 184 4
2022-05-18 21:47:23 GMT 47.443710 -122.305428 0 185 1
2022-05-18 21:47:21 GMT 47.443729 -122.305443 0 185 0
2022-05-18 21:47:20 GMT 47.443729 -122.305428 0 185 1
2022-05-18 21:47:18 GMT 47.443741 -122.305443 0 185 2
2022-05-18 21:47:16 GMT 47.443771 -122.305420 0 183 1
2022-05-18 21:47:15 GMT 47.443760 -122.305420 0 182 3
2022-05-18 21:47:14 GMT 47.443771 -122.305412 0 183 3
2022-05-18 21:47:12 GMT 47.443810 -122.305443 0 185 0
2022-05-18 21:47:10 GMT 47.443821 -122.305450 0 185 2
2022-05-18 21:47:08 GMT 47.443829 -122.305412 0 186 1
2022-05-18 21:47:07 GMT 47.443821 -122.305397 0 192 3
2022-05-18 21:47:04 GMT 47.443851 -122.305481 0 194 2
2022-05-18 21:47:03 GMT 47.443859 -122.305458 0 193 2
2022-05-18 21:47:01 GMT 47.443851 -122.305443 0 186 5
2022-05-18 21:47:00 GMT 47.443878 -122.305420 0 185 3
2022-05-18 21:46:59 GMT 47.443890 -122.305428 0 183 4
2022-05-18 21:46:57 GMT 47.443920 -122.305420 0 175 3
2022-05-18 21:46:56 GMT 47.443932 -122.305412 0 173 3
2022-05-18 21:46:55 GMT 47.443970 -122.305420 0 171 2
2022-05-18 21:46:52 GMT 47.444000 -122.305428 0 195 3
2022-05-18 21:46:50 GMT 47.444012 -122.305412 0 195 3
2022-05-18 21:46:49 GMT 47.444050 -122.305443 0 236 3
2022-05-18 21:46:47 GMT 47.444092 -122.305527 0 233 5
2022-05-18 21:46:46 GMT 47.444080 -122.305473 0 223 4
2022-05-18 21:46:44 GMT 47.444069 -122.305412 0 223 3
2022-05-18 21:46:43 GMT 47.444080 -122.305397 0 224 3
2022-05-18 21:46:42 GMT 47.444092 -122.305382 0 227 3
2022-05-18 21:46:40 GMT 47.444118 -122.305412 0 234 2
2022-05-18 21:46:39 GMT 47.444130 -122.305412 0 236 2
2022-05-18 21:46:38 GMT 47.444141 -122.305397 0 237 2
2022-05-18 21:46:37 GMT 47.444160 -122.305389 0 242 2
2022-05-18 21:46:35 GMT 47.444160 -122.305412 0 244 3
2022-05-18 21:46:33 GMT 47.444180 -122.305397 0 295 5
2022-05-18 21:46:32 GMT 47.444221 -122.305367 0 295 1
2022-05-18 21:46:30 GMT 47.444248 -122.305397 0 292 5
2022-05-18 21:46:28 GMT 47.444210 -122.305321 0 293 1
2022-05-18 21:46:27 GMT 47.444241 -122.305351 0 315 4
2022-05-18 21:46:25 GMT 47.444241 -122.305321 0 324 4
2022-05-18 21:46:24 GMT 47.444241 -122.305267 0 330 4
2022-05-18 21:46:22 GMT 47.444221 -122.305229 0 331 2
2022-05-18 21:46:20 GMT 47.444241 -122.305206 0 338 3
2022-05-18 21:46:19 GMT 47.444241 -122.305168 0 343 3
2022-05-18 21:46:18 GMT 47.444229 -122.305122 0 344 1
2022-05-18 21:46:16 GMT 47.444221 -122.305107 0 345 2
2022-05-18 21:46:15 GMT 47.444229 -122.305122 0 348 2
2022-05-18 21:46:13 GMT 47.444210 -122.305122 0 353 4
2022-05-18 21:46:12 GMT 47.444260 -122.305023 0 353 1
2022-05-18 21:46:11 GMT 47.444221 -122.305168 0 355 1
2022-05-18 21:46:09 GMT 47.444221 -122.305183 0 355 1
2022-05-18 21:46:08 GMT 47.444221 -122.305206 0 0 1
2022-05-18 21:46:03 GMT 47.444191 -122.304893 0 3
We lost coverage of the aircraft here for a total of 6 minutes
2022-05-18 21:39:57 GMT 47.444050 -122.304718 0 0
2022-05-18 21:39:37 GMT 47.444061 -122.304718 0 0
2022-05-18 21:38:52 GMT 47.444057 -122.304710 0 0
2022-05-18 21:38:41 GMT 47.444061 -122.304718 0 0
2022-05-18 21:38:16 GMT 47.444057 -122.304710 0 0

Making use of Plane Finder data

You are free to use the raw flight data, aircraft information and images provided in this report for your own purposes provided the data is correctly attributed to Plane Finder. We ask that you please credit Plane Finder and link to planefinder.net in close proximity to the content.

Optionally one of the following logos (no smaller then 150x24px) can be used and must link to planefinder.net

Embedding the Plane Finder map

You are welcome to embed the Plane Finder playback map on your website to offer visitors a more interactive experience. We suggest using the following HTML code:

<iframe src="//planefinder.net/data/report/AS2275-N442QX-7700-squawk-2022-05-18/map" width="800" height="600" seamless="seamless"></iframe>

Where our data comes from

Plane Finder has a global network of data feeds and antenna radars that receive data broadcast directly from aircraft. The primary technologies used are ADS-B and MLAT. We also show feeds from the FAA and a FLARM glider feed.

Click here to find out more about the Plane Finder network.

How we collect our data